Accueil
METAR-TAF:

METAR-TAF

Aéroports :

Eureka, Nunavut, Canada

latitude: 79-59N, longitude: 085-56W, altitude: 10 m

Observation

Le bulletin a été fait il y a 1 heure et 43 minutes, à 12:00 UTC
Vent 12 kt de sud/sud-est
Température 1°C
Humidité 86%
Pression 1015 hPa
Visibilité: 24.1 km
Nuages épars à une hauteur de 1500 ft
Ciel couvert à une hauteur de 8500 ft

METAR: CWEU 011200Z 16012KT 15SM SCT015 OVC085 01/M01 A2997 RMK SC3AC5 SLP159

Heure: 08:43 (13:43 UTC)


TAF: absent

Observations et prévisions météorologiques de plus de 4000 aéroports (messages METAR et TAF).

Les stations disponibles sont représentées par des disques jaunes et rouges sur la carte.

Passer la souris dessus pour voir le nom de la station.

Cliquer dessus pour voir les observations et prévisions météorologiques.

Pour changer de carte: cliquez sur les boutons verts avec une croix noire pour zoomer, sur le bouton vert avec un tiret pour effectuer un zoom arrière, ou sur les flèches vertes pour les cartes adjacentes.


METAR-TAF: